Time;durP1;ratioP1;P1;durP2;ratioP2;P2;SDS_P1;SDS_P2;PMS_P1;PMS_P2;Temp;Humidity;BMP_temperature;BMP_pressure;BME280_temperature;BME280_humidity;BME280_pressure;Samples;Min_cycle;Max_cycle;Signal;HPM_P1;HPM_P2
2023/03/11 00:00:17;;;;;;;6.72;1.10;;;3.20;99.90;;;;;;5002022;28;20022;-82
2023/03/11 00:02:44;;;;;;;3.65;0.77;;;3.10;99.90;;;;;;4996766;28;20127;-82
2023/03/11 00:05:18;;;;;;;3.20;0.95;;;3.20;99.90;;;;;;5003566;28;20268;-82
2023/03/11 00:07:43;;;;;;;2.60;0.82;;;3.20;99.90;;;;;;5014245;28;20021;-82
2023/03/11 00:10:18;;;;;;;4.05;1.15;;;3.10;99.90;;;;;;5013439;28;20038;-83
2023/03/11 00:12:44;;;;;;;3.80;1.08;;;3.20;99.90;;;;;;5014057;28;20047;-83
2023/03/11 00:15:10;;;;;;;4.53;1.00;;;3.20;99.90;;;;;;5015352;28;20030;-82
2023/03/11 00:17:36;;;;;;;1.10;0.85;;;3.30;99.90;;;;;;5000005;28;20056;-83
2023/03/11 00:20:03;;;;;;;1.15;0.90;;;3.20;99.90;;;;;;5019817;28;20026;-82
2023/03/11 00:22:29;;;;;;;3.13;1.23;;;3.20;99.90;;;;;;5011258;28;20045;-83
2023/03/11 00:24:55;;;;;;;3.08;0.93;;;3.10;99.90;;;;;;5011610;28;20432;-83
2023/03/11 00:27:23;;;;;;;3.17;0.82;;;3.10;99.90;;;;;;4994748;28;20025;-82
2023/03/11 00:29:48;;;;;;;1.98;0.80;;;3.10;99.90;;;;;;4997535;28;20026;-82
2023/03/11 00:32:15;;;;;;;2.83;0.75;;;3.20;99.90;;;;;;4999668;28;20024;-83
2023/03/11 00:34:43;;;;;;;2.60;0.80;;;3.20;99.90;;;;;;5013843;28;20377;-82
2023/03/11 00:37:09;;;;;;;2.08;1.00;;;3.20;99.90;;;;;;4994735;28;20025;-82
2023/03/11 00:39:34;;;;;;;4.03;0.90;;;3.20;99.90;;;;;;5001743;28;20389;-83
2023/03/11 00:42:00;;;;;;;5.32;1.25;;;3.20;99.90;;;;;;5010642;28;20084;-82
2023/03/11 00:44:25;;;;;;;2.67;1.25;;;3.20;99.90;;;;;;4997669;28;20025;-83
2023/03/11 00:46:51;;;;;;;4.07;1.15;;;3.20;99.90;;;;;;5013570;28;20060;-83
2023/03/11 00:49:17;;;;;;;3.85;1.30;;;3.10;99.90;;;;;;4999970;28;20053;-81
2023/03/11 00:51:43;;;;;;;4.35;1.33;;;3.10;99.90;;;;;;5012302;28;20026;-80
2023/03/11 00:54:09;;;;;;;4.03;1.42;;;3.10;99.90;;;;;;5002821;28;20045;-80
2023/03/11 00:56:35;;;;;;;3.20;1.48;;;3.10;99.90;;;;;;4991826;28;20025;-79
2023/03/11 00:59:00;;;;;;;3.00;1.05;;;3.00;99.90;;;;;;5010977;28;20033;-80
2023/03/11 01:01:26;;;;;;;8.13;1.20;;;3.00;99.90;;;;;;5011760;28;20048;-80
2023/03/11 01:03:51;;;;;;;8.65;1.05;;;3.00;99.90;;;;;;5014562;28;20390;-80
2023/03/11 01:06:17;;;;;;;2.60;0.90;;;3.10;99.90;;;;;;5002392;28;20386;-79
2023/03/11 01:08:43;;;;;;;3.97;1.30;;;3.10;99.90;;;;;;5016411;28;20485;-79
2023/03/11 01:11:09;;;;;;;5.68;1.00;;;3.10;99.90;;;;;;5016131;28;20030;-80
2023/03/11 01:13:39;;;;;;;3.15;0.90;;;3.00;99.90;;;;;;5012572;28;20042;-80
2023/03/11 01:16:06;;;;;;;5.28;1.23;;;3.00;99.90;;;;;;5014971;28;20033;-80
2023/03/11 01:18:32;;;;;;;5.88;1.00;;;3.00;99.90;;;;;;5011710;28;20026;-80
2023/03/11 01:21:00;;;;;;;4.32;1.23;;;2.90;99.90;;;;;;5012866;28;20489;-80
2023/03/11 01:23:26;;;;;;;3.47;1.20;;;2.90;99.90;;;;;;5014057;28;20034;-80
2023/03/11 01:25:52;;;;;;;6.40;1.35;;;2.90;99.90;;;;;;5002307;28;20018;-80
2023/03/11 01:28:17;;;;;;;11.45;1.85;;;2.90;99.90;;;;;;4990802;28;20025;-80
2023/03/11 01:30:43;;;;;;;10.10;1.25;;;2.80;99.90;;;;;;5015477;28;20030;-80
2023/03/11 01:33:14;;;;;;;5.35;1.30;;;2.80;99.90;;;;;;5016220;28;20034;-80
2023/03/11 01:35:41;;;;;;;10.02;1.95;;;2.90;99.90;;;;;;5011896;28;20103;-81
2023/03/11 01:38:07;;;;;;;4.70;1.30;;;2.90;99.90;;;;;;5136130;22;20087;-80
2023/03/11 01:40:53;;;;;;;5.65;1.63;;;2.80;99.90;;;;;;5014784;28;20497;-80
2023/03/11 01:43:43;;;;;;;5.28;1.42;;;2.80;99.90;;;;;;5015322;28;20036;-80
2023/03/11 01:46:20;;;;;;;6.32;1.45;;;2.80;99.90;;;;;;4998332;28;20071;-80
2023/03/11 01:48:59;;;;;;;7.35;1.35;;;2.70;99.90;;;;;;5015490;28;20022;-79
2023/03/11 01:51:36;;;;;;;5.70;1.60;;;2.70;99.90;;;;;;4993871;28;20021;-81
2023/03/11 01:54:12;;;;;;;5.07;1.20;;;2.60;99.90;;;;;;5003312;28;20033;-83
2023/03/11 01:56:39;;;;;;;5.22;1.77;;;2.60;99.90;;;;;;5000722;28;20018;-82
2023/03/11 01:59:06;;;;;;;7.25;1.50;;;2.50;99.90;;;;;;4997861;28;20021;-82
2023/03/11 02:01:32;;;;;;;6.30;1.77;;;2.50;99.90;;;;;;5002642;28;20028;-82
2023/03/11 02:04:01;;;;;;;8.00;1.73;;;2.60;99.90;;;;;;4998591;28;20396;-82
2023/03/11 02:06:28;;;;;;;6.90;1.65;;;2.60;99.90;;;;;;5000424;28;20025;-82
2023/03/11 02:08:54;;;;;;;7.30;1.67;;;2.60;99.90;;;;;;5011991;28;20543;-82
2023/03/11 02:11:25;;;;;;;6.82;1.42;;;2.60;99.90;;;;;;4998144;28;20053;-83
2023/03/11 02:13:55;;;;;;;7.10;1.40;;;2.60;99.90;;;;;;5013942;28;20291;-82
2023/03/11 02:16:20;;;;;;;7.90;1.50;;;2.60;99.90;;;;;;5011532;28;20025;-82
2023/03/11 02:18:46;;;;;;;10.07;1.88;;;2.60;99.90;;;;;;5013558;28;20028;-82
2023/03/11 02:21:27;;;;;;;4.50;1.77;;;2.70;99.90;;;;;;5014022;28;20064;-83
2023/03/11 02:23:59;;;;;;;5.93;1.30;;;2.70;99.90;;;;;;5001971;28;20025;-82
2023/03/11 02:26:28;;;;;;;11.88;1.95;;;2.70;99.90;;;;;;5008727;28;20033;-82
2023/03/11 02:28:56;;;;;;;4.65;1.50;;;2.70;99.90;;;;;;4994820;28;20033;-82
2023/03/11 02:31:23;;;;;;;9.88;2.08;;;2.70;99.90;;;;;;4993828;28;20037;-82
2023/03/11 02:33:53;;;;;;;4.28;1.15;;;2.70;99.90;;;;;;5010036;28;20048;-82
2023/03/11 02:36:37;;;;;;;7.95;1.40;;;2.70;99.90;;;;;;5001642;28;20029;-82
2023/03/11 02:39:04;;;;;;;3.30;1.20;;;2.80;99.90;;;;;;4994158;28;20171;-82
2023/03/11 02:41:33;;;;;;;3.47;1.10;;;2.80;99.90;;;;;;5010455;28;20030;-82
2023/03/11 02:44:00;;;;;;;4.72;1.25;;;2.80;99.90;;;;;;5015516;28;20030;-82
2023/03/11 02:46:26;;;;;;;8.93;1.65;;;2.80;99.90;;;;;;5003367;28;20377;-82
2023/03/11 02:48:54;;;;;;;5.50;1.95;;;2.80;99.90;;;;;;5002410;28;20417;-82
2023/03/11 02:51:20;;;;;;;3.85;1.13;;;2.70;99.90;;;;;;5001121;28;20030;-81
2023/03/11 02:53:53;;;;;;;5.95;1.10;;;2.80;99.90;;;;;;5010274;28;20556;-82
2023/03/11 02:56:18;;;;;;;6.35;1.23;;;2.70;99.90;;;;;;5009626;28;20381;-82
2023/03/11 02:58:44;;;;;;;7.20;1.65;;;2.70;99.90;;;;;;5009921;28;20117;-82
2023/03/11 03:01:10;;;;;;;5.75;1.20;;;2.70;99.90;;;;;;4988933;28;20030;-81
2023/03/11 03:03:35;;;;;;;13.88;1.75;;;2.70;99.90;;;;;;5001264;28;20029;-82
2023/03/11 03:06:04;;;;;;;4.93;1.30;;;2.70;99.90;;;;;;4995325;28;20635;-82
2023/03/11 03:08:30;;;;;;;6.90;1.10;;;2.70;99.90;;;;;;4999423;28;20037;-83
2023/03/11 03:10:55;;;;;;;8.43;0.95;;;2.70;99.90;;;;;;4998691;28;20026;-82
2023/03/11 03:13:21;;;;;;;4.35;1.08;;;2.70;99.90;;;;;;4990375;28;20029;-82
2023/03/11 03:15:47;;;;;;;6.63;1.45;;;2.70;99.90;;;;;;5008811;28;20059;-81
2023/03/11 03:18:12;;;;;;;8.00;1.42;;;2.70;99.90;;;;;;5008717;28;20096;-82
2023/03/11 03:20:38;;;;;;;10.55;1.40;;;2.70;99.90;;;;;;4995178;28;20028;-82
2023/03/11 03:23:03;;;;;;;10.07;1.55;;;2.60;99.90;;;;;;5011422;28;20029;-82
2023/03/11 03:25:29;;;;;;;7.28;1.27;;;2.70;99.90;;;;;;5010355;28;20124;-82
2023/03/11 03:27:55;;;;;;;8.23;1.30;;;2.60;99.90;;;;;;4999281;28;20026;-82
2023/03/11 03:30:20;;;;;;;3.28;1.05;;;2.50;99.90;;;;;;5009294;28;20022;-81
2023/03/11 03:32:49;;;;;;;8.27;1.83;;;2.50;99.90;;;;;;4996384;28;20056;-82
2023/03/11 03:35:15;;;;;;;8.57;1.60;;;2.50;99.90;;;;;;4995178;28;20486;-82
2023/03/11 03:37:41;;;;;;;19.00;1.60;;;2.50;99.90;;;;;;5011200;28;20033;-82
2023/03/11 03:40:07;;;;;;;4.55;1.42;;;2.50;99.90;;;;;;4995854;28;20026;-82
2023/03/11 03:42:36;;;;;;;7.82;1.13;;;2.50;99.90;;;;;;5012482;28;20093;-82
2023/03/11 03:45:04;;;;;;;8.10;2.28;;;2.50;99.90;;;;;;4995273;28;20018;-82
2023/03/11 03:47:31;;;;;;;4.97;1.45;;;2.50;99.90;;;;;;4992949;28;20412;-82
2023/03/11 03:49:56;;;;;;;5.15;1.20;;;2.40;99.90;;;;;;5008573;28;20129;-82
2023/03/11 03:52:22;;;;;;;6.30;1.33;;;2.40;99.90;;;;;;5011472;28;20113;-82
2023/03/11 03:54:50;;;;;;;5.05;1.20;;;2.40;99.90;;;;;;4995505;28;20044;-82
2023/03/11 03:57:16;;;;;;;7.93;1.38;;;2.30;99.90;;;;;;5001254;28;20018;-82
2023/03/11 03:59:42;;;;;;;7.22;1.70;;;2.40;99.90;;;;;;5010548;28;20024;-82
2023/03/11 04:02:07;;;;;;;6.82;1.45;;;2.40;99.90;;;;;;5009523;28;20037;-82
2023/03/11 04:04:33;;;;;;;10.35;1.50;;;2.40;99.90;;;;;;5010695;28;20030;-82
2023/03/11 04:06:59;;;;;;;7.97;1.80;;;2.30;99.90;;;;;;5010047;28;20022;-82
2023/03/11 04:09:24;;;;;;;4.22;1.50;;;2.40;99.90;;;;;;5017854;28;20026;-82
2023/03/11 04:11:50;;;;;;;7.10;1.02;;;2.40;99.90;;;;;;4989910;28;20026;-82
2023/03/11 04:14:16;;;;;;;8.02;1.70;;;2.40;99.90;;;;;;4998542;28;20204;-82
2023/03/11 04:16:42;;;;;;;7.28;1.50;;;2.40;99.90;;;;;;5014469;28;20020;-81
2023/03/11 04:19:08;;;;;;;6.10;1.60;;;2.40;99.90;;;;;;5009455;28;20025;-82
2023/03/11 04:21:34;;;;;;;3.30;1.20;;;2.40;99.90;;;;;;5006875;28;20018;-82
2023/03/11 04:24:02;;;;;;;6.25;1.20;;;2.40;99.90;;;;;;5009738;28;20496;-82
2023/03/11 04:26:28;;;;;;;14.43;2.30;;;2.40;99.90;;;;;;5000612;28;20065;-82
2023/03/11 04:28:56;;;;;;;9.10;1.50;;;2.40;99.90;;;;;;4998146;28;20052;-82
2023/03/11 04:31:21;;;;;;;4.15;1.00;;;2.40;99.90;;;;;;5007519;28;20021;-82
2023/03/11 04:33:47;;;;;;;14.40;1.40;;;2.40;99.90;;;;;;5010065;28;20045;-82
2023/03/11 04:36:12;;;;;;;11.18;1.30;;;2.50;99.90;;;;;;5005419;28;20076;-81
2023/03/11 04:38:38;;;;;;;6.68;1.60;;;2.40;99.90;;;;;;5010700;28;20117;-82
2023/03/11 04:41:05;;;;;;;13.68;1.20;;;2.40;99.90;;;;;;5015827;28;20049;-82
2023/03/11 04:43:34;;;;;;;3.47;1.25;;;2.40;99.90;;;;;;4998131;28;20018;-82
2023/03/11 04:46:00;;;;;;;3.95;1.08;;;2.40;99.90;;;;;;5017671;28;20127;-83
2023/03/11 04:48:28;;;;;;;3.88;1.45;;;2.40;99.90;;;;;;5012779;28;20359;-83
2023/03/11 04:50:54;;;;;;;11.20;1.30;;;2.40;99.90;;;;;;4993386;28;20018;-82
2023/03/11 04:53:20;;;;;;;10.77;1.30;;;2.50;99.90;;;;;;4996472;28;20042;-82
2023/03/11 04:55:47;;;;;;;2.95;1.10;;;2.40;99.90;;;;;;5014238;28;20087;-82
2023/03/11 04:58:12;;;;;;;5.97;1.33;;;2.50;99.90;;;;;;5014561;28;20037;-82
2023/03/11 05:00:38;;;;;;;9.98;1.30;;;2.50;99.90;;;;;;5004611;28;20038;-82
2023/03/11 05:03:04;;;;;;;6.65;1.85;;;2.50;99.90;;;;;;5019051;28;20060;-82
2023/03/11 05:05:29;;;;;;;8.15;1.05;;;2.50;99.90;;;;;;5029356;28;20014;-82
2023/03/11 05:07:55;;;;;;;6.63;1.65;;;2.50;99.90;;;;;;5017923;28;20525;-82
2023/03/11 05:10:23;;;;;;;5.13;1.60;;;2.40;99.90;;;;;;5014249;28;20033;-82
2023/03/11 05:12:51;;;;;;;5.65;1.15;;;2.50;99.90;;;;;;5000468;28;20033;-82
2023/03/11 05:15:20;;;;;;;4.05;1.13;;;2.50;99.90;;;;;;5003899;28;20511;-82
2023/03/11 05:17:46;;;;;;;9.40;1.70;;;2.40;99.90;;;;;;5020886;28;20028;-81
2023/03/11 05:20:12;;;;;;;3.70;1.42;;;2.40;99.90;;;;;;5040677;28;20308;-82
2023/03/11 05:22:40;;;;;;;5.32;1.15;;;2.40;99.90;;;;;;5029392;28;20022;-81
2023/03/11 05:25:09;;;;;;;6.95;1.35;;;2.30;99.90;;;;;;5043413;28;20038;-83
2023/03/11 05:27:34;;;;;;;7.05;1.20;;;2.30;99.90;;;;;;4999230;28;20033;-82
2023/03/11 05:30:00;;;;;;;4.90;1.88;;;2.30;99.90;;;;;;5005421;28;20643;-82
2023/03/11 05:32:28;;;;;;;8.65;1.42;;;2.30;99.90;;;;;;5017545;28;20030;-82
2023/03/11 05:34:53;;;;;;;6.85;1.40;;;2.20;99.90;;;;;;5012160;28;20045;-82
2023/03/11 05:37:19;;;;;;;10.90;1.50;;;2.20;99.90;;;;;;5013605;28;20121;-82
2023/03/11 05:39:45;;;;;;;10.07;2.28;;;2.20;99.90;;;;;;5014077;28;20013;-82
2023/03/11 05:42:10;;;;;;;15.13;1.80;;;2.20;99.90;;;;;;5000167;28;20025;-82
2023/03/11 05:44:36;;;;;;;4.45;1.33;;;2.20;99.90;;;;;;5014922;28;20018;-82
2023/03/11 05:47:02;;;;;;;3.67;1.20;;;2.20;99.90;;;;;;5013167;28;20030;-82
2023/03/11 05:49:27;;;;;;;7.80;1.67;;;2.10;99.90;;;;;;5002302;28;20321;-81
2023/03/11 05:51:53;;;;;;;11.32;1.98;;;2.20;99.90;;;;;;5010203;28;20029;-82
2023/03/11 05:54:19;;;;;;;7.80;1.50;;;2.20;99.90;;;;;;5002008;28;20400;-81
2023/03/11 05:56:45;;;;;;;6.88;1.88;;;2.20;99.90;;;;;;5001532;28;20026;-82
2023/03/11 05:59:12;;;;;;;10.20;1.60;;;2.10;99.90;;;;;;4997172;28;20036;-82
2023/03/11 06:01:39;;;;;;;8.20;1.50;;;2.10;99.90;;;;;;4997320;28;20044;-82
2023/03/11 06:04:05;;;;;;;4.78;1.40;;;2.10;99.90;;;;;;5010879;28;20053;-82
2023/03/11 06:06:30;;;;;;;4.18;1.35;;;2.00;99.90;;;;;;5004261;28;20589;-82
2023/03/11 06:08:58;;;;;;;7.65;1.60;;;2.00;99.90;;;;;;5014916;28;20104;-83
2023/03/11 06:11:25;;;;;;;7.88;1.50;;;2.10;99.90;;;;;;5001692;28;20017;-83
2023/03/11 06:13:55;;;;;;;9.93;2.13;;;2.10;99.90;;;;;;4996667;28;20032;-82
2023/03/11 06:16:22;;;;;;;20.17;3.67;;;2.10;99.90;;;;;;5015843;28;20026;-83
2023/03/11 06:18:50;;;;;;;10.15;3.33;;;2.00;99.90;;;;;;5008434;28;20780;-82
2023/03/11 06:21:20;;;;;;;5.70;2.13;;;2.00;99.90;;;;;;4999149;28;20022;-82
2023/03/11 06:23:46;;;;;;;7.25;1.70;;;2.00;99.90;;;;;;5012508;28;20033;-82
2023/03/11 06:26:15;;;;;;;6.32;1.77;;;2.00;99.90;;;;;;5009463;28;20500;-82
2023/03/11 06:28:42;;;;;;;4.65;1.30;;;2.00;99.90;;;;;;4999102;28;20103;-82
2023/03/11 06:31:10;;;;;;;8.52;0.95;;;2.00;99.90;;;;;;5008316;28;20410;-81
2023/03/11 06:33:35;;;;;;;9.00;2.05;;;2.10;99.90;;;;;;5015744;28;20033;-82
2023/03/11 06:36:06;;;;;;;8.18;1.27;;;2.10;99.90;;;;;;4999571;28;20198;-82
2023/03/11 06:38:33;;;;;;;8.45;1.63;;;2.10;99.90;;;;;;5013017;28;20560;-83
2023/03/11 06:41:00;;;;;;;20.42;1.70;;;2.10;99.90;;;;;;5014006;28;20042;-83
2023/03/11 06:43:25;;;;;;;6.50;1.10;;;2.10;99.90;;;;;;5015554;28;20510;-82
2023/03/11 06:45:51;;;;;;;5.22;1.10;;;2.20;99.90;;;;;;4997057;28;20017;-82
2023/03/11 06:48:16;;;;;;;10.45;1.17;;;2.30;99.90;;;;;;5013707;28;20083;-82
2023/03/11 06:50:42;;;;;;;3.65;1.25;;;2.30;99.90;;;;;;5009827;28;20192;-81
2023/03/11 06:53:08;;;;;;;5.68;1.30;;;2.30;99.90;;;;;;4995708;28;20469;-81
2023/03/11 06:55:36;;;;;;;5.22;1.27;;;2.30;99.90;;;;;;5014634;28;20416;-82
2023/03/11 06:58:05;;;;;;;3.03;1.27;;;2.30;99.90;;;;;;5004574;28;20068;-82
2023/03/11 07:00:30;;;;;;;3.53;1.15;;;2.40;99.90;;;;;;5012662;28;20139;-82
2023/03/11 07:02:56;;;;;;;11.70;2.00;;;2.40;99.90;;;;;;5002275;28;20831;-82
2023/03/11 07:05:22;;;;;;;3.47;1.40;;;2.40;99.90;;;;;;5012683;28;20056;-82
2023/03/11 07:07:48;;;;;;;6.22;1.45;;;2.50;99.90;;;;;;4997339;28;20064;-82
2023/03/11 07:10:13;;;;;;;9.07;1.20;;;2.50;99.90;;;;;;5014453;28;20566;-81
2023/03/11 07:12:39;;;;;;;3.33;1.08;;;2.50;99.90;;;;;;5011892;28;20029;-82
2023/03/11 07:15:05;;;;;;;5.50;1.55;;;2.60;99.90;;;;;;4996600;28;20030;-82
2023/03/11 07:17:31;;;;;;;8.50;2.13;;;2.70;99.90;;;;;;4993734;28;20022;-82
2023/03/11 07:19:57;;;;;;;5.90;1.40;;;2.70;99.90;;;;;;5015037;28;20018;-81
2023/03/11 07:22:22;;;;;;;9.30;2.05;;;2.80;99.90;;;;;;5012952;28;20033;-82
2023/03/11 07:24:48;;;;;;;5.25;1.38;;;2.80;99.90;;;;;;5015491;28;20083;-82
2023/03/11 07:27:14;;;;;;;5.18;1.42;;;2.80;99.90;;;;;;5013881;28;20041;-81
2023/03/11 07:29:40;;;;;;;2.47;1.30;;;2.80;99.90;;;;;;4995023;28;20021;-82
2023/03/11 07:32:07;;;;;;;6.22;1.48;;;2.80;99.90;;;;;;4998256;28;20484;-82
2023/03/11 07:34:32;;;;;;;6.07;1.50;;;2.90;99.90;;;;;;4999286;28;20127;-79
2023/03/11 07:37:00;;;;;;;8.02;1.92;;;2.90;99.90;;;;;;4997682;28;20026;-79
2023/03/11 07:39:26;;;;;;;7.60;1.40;;;2.90;99.90;;;;;;4993798;28;20042;-79
2023/03/11 07:41:51;;;;;;;4.97;1.35;;;3.00;99.90;;;;;;4994269;28;20087;-79
2023/03/11 07:44:17;;;;;;;4.35;1.50;;;2.90;99.90;;;;;;5009719;28;20049;-79
2023/03/11 07:46:45;;;;;;;7.30;1.50;;;3.00;99.90;;;;;;5000004;28;20105;-80
2023/03/11 07:49:11;;;;;;;6.15;1.40;;;3.10;99.90;;;;;;5002648;28;20130;-79
2023/03/11 07:51:39;;;;;;;9.65;1.83;;;3.20;99.90;;;;;;5008451;28;20022;-79
2023/03/11 07:54:07;;;;;;;6.25;1.48;;;3.20;99.90;;;;;;5010372;28;20553;-79
2023/03/11 07:56:37;;;;;;;5.30;1.60;;;3.30;99.90;;;;;;5008936;28;20056;-79
2023/03/11 07:59:04;;;;;;;4.53;1.30;;;3.40;99.90;;;;;;4993893;28;20123;-79
2023/03/11 08:01:35;;;;;;;6.85;1.63;;;3.40;99.90;;;;;;5012597;28;20366;-79
2023/03/11 08:04:02;;;;;;;7.40;1.85;;;3.50;99.90;;;;;;4999467;28;20109;-82
2023/03/11 08:06:34;;;;;;;18.00;2.05;;;3.60;99.90;;;;;;5008557;28;20076;-81
2023/03/11 08:09:02;;;;;;;11.50;2.03;;;3.70;99.90;;;;;;5000293;28;20017;-82
2023/03/11 08:11:29;;;;;;;10.55;2.00;;;3.80;99.90;;;;;;4996166;28;20060;-83
2023/03/11 08:13:56;;;;;;;13.48;1.58;;;3.80;99.90;;;;;;4998546;28;20037;-82
2023/03/11 08:16:22;;;;;;;11.80;1.75;;;3.90;99.90;;;;;;5030391;28;20018;-81
2023/03/11 08:18:50;;;;;;;5.85;1.50;;;4.00;99.90;;;;;;5009202;28;20029;-82
2023/03/11 08:21:21;;;;;;;6.55;1.80;;;4.10;99.90;;;;;;5003736;28;20074;-81
2023/03/11 08:23:47;;;;;;;3.50;1.45;;;4.10;99.90;;;;;;5004231;28;20026;-81
2023/03/11 08:26:22;;;;;;;4.97;1.20;;;4.20;99.90;;;;;;5018087;28;20406;-81
2023/03/11 08:28:48;;;;;;;6.10;1.95;;;4.30;99.90;;;;;;5014171;28;20029;-87
2023/03/11 08:31:20;;;;;;;4.80;1.02;;;4.50;99.90;;;;;;4999160;28;20090;-81
2023/03/11 08:33:48;;;;;;;4.90;1.20;;;4.70;99.90;;;;;;5002504;28;20390;-81
2023/03/11 08:36:15;;;;;;;9.27;1.30;;;4.70;99.90;;;;;;5005287;28;20375;-80
2023/03/11 08:38:40;;;;;;;4.35;1.33;;;4.80;99.90;;;;;;5001290;28;20045;-79
2023/03/11 08:41:06;;;;;;;7.45;1.40;;;5.00;99.90;;;;;;5017532;28;20102;-83
2023/03/11 08:43:32;;;;;;;9.02;1.15;;;5.20;99.90;;;;;;5019164;28;20377;-88
2023/03/11 08:46:00;;;;;;;9.27;1.33;;;5.40;99.90;;;;;;5007595;28;20168;-85
2023/03/11 08:48:25;;;;;;;4.93;1.02;;;5.50;99.90;;;;;;5003033;28;20021;-87
2023/03/11 08:50:52;;;;;;;8.70;1.02;;;5.80;99.90;;;;;;5003019;28;20017;-81
2023/03/11 08:53:17;;;;;;;4.15;0.90;;;5.90;99.90;;;;;;5016725;28;20033;-81
2023/03/11 08:55:43;;;;;;;6.43;1.58;;;6.00;99.90;;;;;;5019269;28;20500;-81
2023/03/11 08:58:08;;;;;;;4.57;0.80;;;6.30;99.90;;;;;;5000668;28;20029;-82
2023/03/11 09:00:36;;;;;;;5.18;1.10;;;6.60;99.90;;;;;;5015440;28;20663;-80
2023/03/11 09:03:02;;;;;;;4.88;1.42;;;6.80;99.90;;;;;;5021334;28;20034;-81
2023/03/11 09:05:27;;;;;;;8.77;0.88;;;7.00;99.90;;;;;;5017434;28;20029;-82
2023/03/11 09:07:53;;;;;;;7.80;1.40;;;7.30;99.90;;;;;;5011317;28;20908;-82
2023/03/11 09:10:18;;;;;;;5.25;1.27;;;7.80;99.90;;;;;;5002149;28;20025;-83
2023/03/11 09:12:44;;;;;;;3.45;1.00;;;8.10;99.90;;;;;;5004166;28;20564;-81
2023/03/11 09:15:10;;;;;;;2.97;1.02;;;8.50;99.90;;;;;;4999994;28;20050;-82
2023/03/11 09:17:36;;;;;;;8.88;1.23;;;8.90;99.90;;;;;;4998584;28;20026;-82
2023/03/11 09:20:02;;;;;;;6.95;1.15;;;9.00;99.90;;;;;;5009176;28;20038;-81
2023/03/11 09:22:28;;;;;;;3.40;1.02;;;9.40;99.90;;;;;;5015642;28;20025;-82
2023/03/11 09:24:53;;;;;;;8.30;1.13;;;10.00;99.90;;;;;;5012685;28;20139;-81
2023/03/11 09:27:19;;;;;;;2.08;0.88;;;10.60;99.90;;;;;;5014507;28;20363;-82
2023/03/11 09:29:44;;;;;;;1.98;0.98;;;11.10;99.90;;;;;;5011229;28;20111;-82
2023/03/11 09:32:13;;;;;;;5.03;0.80;;;11.70;98.40;;;;;;5014716;28;20454;-82
2023/03/11 09:34:40;;;;;;;2.05;1.10;;;12.70;95.80;;;;;;4989048;28;20042;-81
2023/03/11 09:37:08;;;;;;;8.40;1.10;;;13.30;92.50;;;;;;4994905;28;20032;-82
2023/03/11 09:39:33;;;;;;;2.10;0.70;;;13.80;89.20;;;;;;4995271;28;20527;-82
2023/03/11 09:42:24;;;;;;;1.30;0.47;;;14.30;78.00;;;;;;4990868;28;20325;-82
2023/03/11 09:45:08;;;;;;;5.68;0.93;;;14.70;73.00;;;;;;4980066;28;20332;-81
2023/03/11 09:47:37;;;;;;;3.45;0.77;;;15.40;73.20;;;;;;4996035;28;20030;-81
2023/03/11 09:50:29;;;;;;;4.25;0.70;;;15.00;69.40;;;;;;4998016;28;20026;-82
2023/03/11 09:53:33;;;;;;;2.95;0.85;;;15.20;67.80;;;;;;4982156;28;20042;-81
2023/03/11 09:56:00;;;;;;;6.65;0.90;;;16.00;70.70;;;;;;4974849;28;20038;-81
2023/03/11 09:58:43;;;;;;;5.70;0.80;;;16.20;66.30;;;;;;4977436;28;20022;-81
2023/03/11 10:01:15;;;;;;;;;;;16.20;62.80;;;;;;4983820;28;20034;-81
2023/03/11 10:03:43;;;;;;;5.90;0.93;;;15.90;59.20;;;;;;4995883;28;19910;-81
2023/03/11 10:06:21;;;;;;;5.22;0.98;;;16.30;61.50;;;;;;4995860;28;20466;-81
2023/03/11 10:09:18;;;;;;;2.13;0.70;;;15.70;60.00;;;;;;4995504;28;20022;-81
2023/03/11 10:11:49;;;;;;;6.45;0.77;;;15.10;60.50;;;;;;4974851;28;20026;-81
2023/03/11 10:14:36;;;;;;;3.80;0.55;;;15.40;61.90;;;;;;4992537;28;20031;-81
2023/03/11 10:17:24;;;;;;;3.92;0.80;;;15.30;54.60;;;;;;4990089;28;20034;-82
2023/03/11 10:20:08;;;;;;;4.78;0.70;;;14.80;56.10;;;;;;4973502;28;20061;-82
2023/03/11 10:22:48;;;;;;;3.17;0.50;;;14.70;57.30;;;;;;4975535;28;20186;-81
2023/03/11 10:25:18;;;;;;;1.88;0.73;;;14.20;56.10;;;;;;4971239;28;20034;-82
2023/03/11 10:27:56;;;;;;;4.43;0.45;;;13.40;55.80;;;;;;5006115;28;20585;-81
2023/03/11 10:30:28;;;;;;;1.02;0.55;;;13.20;63.50;;;;;;5009071;28;20139;-81
2023/03/11 10:33:00;;;;;;;4.38;0.95;;;13.00;62.20;;;;;;5022125;28;20026;-81
2023/03/11 10:35:38;;;;;;;5.53;0.80;;;13.10;61.10;;;;;;5022562;28;20584;-81
2023/03/11 10:38:16;;;;;;;1.95;0.77;;;13.40;64.80;;;;;;5001947;28;20033;-81
2023/03/11 10:40:44;;;;;;;1.90;0.70;;;13.90;62.50;;;;;;4997033;28;20022;-81
2023/03/11 10:43:35;;;;;;;2.10;0.60;;;14.10;60.00;;;;;;5018554;28;20033;-81
2023/03/11 10:46:05;;;;;;;7.32;2.60;;;13.70;60.30;;;;;;5000076;28;20101;-82
2023/03/11 10:48:31;;;;;;;3.75;0.60;;;13.50;57.90;;;;;;4994299;28;20029;-82
2023/03/11 10:51:02;;;;;;;1.55;0.50;;;13.10;61.70;;;;;;4998304;28;20025;-81
2023/03/11 10:53:29;;;;;;;4.95;1.08;;;12.60;62.00;;;;;;4984375;28;20049;-82
2023/03/11 10:55:57;;;;;;;1.33;0.60;;;12.60;62.30;;;;;;4994718;28;20438;-82
2023/03/11 10:58:28;;;;;;;26.15;6.38;;;12.90;59.30;;;;;;4980074;28;20455;-83
2023/03/11 11:01:15;;;;;;;7.65;1.67;;;13.00;64.40;;;;;;4978523;28;20029;-82
2023/03/11 11:03:45;;;;;;;2.15;0.68;;;13.30;61.60;;;;;;4971770;28;20033;-83
2023/03/11 11:06:33;;;;;;;2.35;0.52;;;13.40;59.80;;;;;;4997864;28;20053;-83
2023/03/11 11:09:06;;;;;;;2.03;0.70;;;13.60;57.40;;;;;;4991819;28;20068;-83
2023/03/11 11:11:34;;;;;;;;;;;13.40;60.50;;;;;;4999010;28;20140;-82
2023/03/11 11:14:00;;;;;;;3.50;0.57;;;13.10;57.80;;;;;;5010008;28;19924;-83
2023/03/11 11:16:27;;;;;;;2.00;0.70;;;13.20;55.80;;;;;;5004565;28;20618;-83
2023/03/11 11:18:59;;;;;;;4.10;0.80;;;12.70;57.50;;;;;;4971115;28;20107;-83
2023/03/11 11:21:36;;;;;;;1.17;0.60;;;12.70;60.50;;;;;;4978573;28;20026;-82
2023/03/11 11:24:15;;;;;;;3.83;0.88;;;12.60;58.50;;;;;;4972463;28;20044;-83
2023/03/11 11:26:41;;;;;;;4.88;0.77;;;12.00;58.50;;;;;;4978474;28;20437;-83
2023/03/11 11:29:10;;;;;;;1.85;0.85;;;11.80;59.50;;;;;;5001574;28;20022;-84
2023/03/11 11:31:40;;;;;;;21.77;6.55;;;11.70;58.70;;;;;;4996613;28;22641;-84
2023/03/11 11:34:30;;;;;;;5.60;0.82;;;11.70;60.20;;;;;;4988214;28;20561;-85
2023/03/11 11:37:03;;;;;;;0.75;0.60;;;11.80;60.10;;;;;;4991342;28;20095;-83
2023/03/11 11:39:35;;;;;;;2.00;0.80;;;12.00;63.60;;;;;;4975783;28;20042;-88
2023/03/11 11:42:02;;;;;;;4.45;0.60;;;12.40;60.10;;;;;;4979855;28;20313;-84
2023/03/11 11:44:35;;;;;;;3.35;0.85;;;12.80;61.60;;;;;;4980442;28;20328;-86
2023/03/11 11:47:14;;;;;;;;;;;13.00;61.20;;;;;;4992413;28;20062;-77
2023/03/11 11:49:49;;;;;;;1.40;0.70;;;13.10;59.80;;;;;;5000506;28;19905;-86
2023/03/11 11:52:24;;;;;;;2.92;0.70;;;13.10;59.60;;;;;;4998354;28;20022;-87
2023/03/11 11:55:08;;;;;;;3.92;0.85;;;12.90;60.70;;;;;;4984582;28;20739;-87
2023/03/11 11:57:33;;;;;;;3.20;0.68;;;13.10;58.60;;;;;;4994631;28;20665;-87
2023/03/11 12:00:00;;;;;;;4.72;0.80;;;13.20;59.00;;;;;;4975337;28;20029;-85
2023/03/11 12:02:32;;;;;;;3.20;0.70;;;13.70;59.50;;;;;;4982864;28;20014;-88
2023/03/11 12:05:15;;;;;;;5.05;0.63;;;13.40;57.30;;;;;;4979533;28;20356;-88
2023/03/11 12:07:41;;;;;;;3.03;0.60;;;12.10;55.20;;;;;;4978231;28;20092;-87
2023/03/11 12:10:41;;;;;;;2.65;0.88;;;11.50;56.30;;;;;;4977464;28;20141;-86
2023/03/11 12:13:25;;;;;;;5.70;0.77;;;11.70;59.30;;;;;;4975006;28;20129;-86
2023/03/11 12:16:06;;;;;;;6.05;1.00;;;11.50;60.60;;;;;;4978936;28;20093;-86
2023/03/11 12:18:35;;;;;;;1.35;0.70;;;11.60;60.90;;;;;;4979385;28;20032;-86
2023/03/11 12:21:26;;;;;;;2.45;0.70;;;12.20;60.40;;;;;;4983929;28;20058;-87
2023/03/11 12:24:07;;;;;;;7.35;0.90;;;12.70;61.60;;;;;;5002633;28;20022;-86
2023/03/11 12:26:37;;;;;;;3.17;0.70;;;13.10;60.90;;;;;;4985350;28;20129;-87
2023/03/11 12:29:27;;;;;;;4.47;1.35;;;12.90;57.50;;;;;;5002232;28;20376;-87
2023/03/11 12:31:54;;;;;;;5.05;1.00;;;13.00;60.10;;;;;;5000706;28;20049;-87
2023/03/11 12:34:21;;;;;;;1.25;0.55;;;13.30;59.10;;;;;;4994205;28;20096;-87
2023/03/11 12:36:48;;;;;;;8.40;1.10;;;13.80;57.10;;;;;;4987141;28;20169;-87
2023/03/11 12:39:30;;;;;;;1.70;0.68;;;13.80;57.10;;;;;;4998331;28;20060;-87
2023/03/11 12:42:28;;;;;;;4.72;0.90;;;13.30;56.40;;;;;;4985299;28;20264;-86
2023/03/11 12:45:13;;;;;;;7.15;0.82;;;13.20;57.40;;;;;;4986354;28;20025;-88
2023/03/11 12:47:39;;;;;;;3.10;0.70;;;12.90;55.50;;;;;;4979614;28;20273;-88
2023/03/11 12:50:40;;;;;;;5.35;0.85;;;12.40;55.90;;;;;;4982012;28;20026;-87
2023/03/11 12:53:15;;;;;;;5.68;0.73;;;12.50;56.20;;;;;;5000190;28;20105;-89
2023/03/11 12:56:01;;;;;;;3.10;0.50;;;12.40;53.80;;;;;;4998685;28;20529;-86
2023/03/11 12:59:06;;;;;;;0.80;0.70;;;11.80;51.90;;;;;;4993919;28;20543;-87
2023/03/11 13:01:35;;;;;;;3.60;0.90;;;12.40;52.50;;;;;;4974531;28;20260;-87
2023/03/11 13:04:34;;;;;;;2.45;0.70;;;12.90;53.40;;;;;;4997618;28;20089;-87